Station Historical Data
 
Daily Summary for January 16, 2019 Units:  Metric    English   Both
« Previous Day
Next Day »
Daily Weekly Monthly Yearly Custom
  Current: High: Low: Average:
Temperature: 12.0 °C 15.3 °C 9.7 °C 12.3 °C
Dew Point: 9.0 °C 9.5 °C 7.1 °C 8.1 °C
Humidity: 82% 85% 64% 76%
Wind Speed: 3.2km/h 16.1km/h 0.0km/h 5.4km/h
Wind Gust: 9.7km/h 29.0km/h - -
WindSW - - SSW
Pressure: 1014.3 hPa 1019.2 hPa 1014.2 hPa -
Precipitation: 0.0 mm      
Historical Graphs
 
 
Tabular Data for January 16, 2019
Time Temperature Dew Point Pressure Wind Wind Speed Wind Gust Humidity Rainfall Rate (Hourly) solar Conditions
00:00 11.2 °C 8.1 °C 1019.2 hPa Calm   4.8 km/h 81% 0.0 mm 0.00 W/m2 BKN
00:05 11.2 °C 8.1 °C 1019.2 hPa SW 1.6 km/h 3.2 km/h 81% 0.0 mm 0.00 W/m2 BKN
00:10 11.2 °C 8.1 °C 1019.2 hPa Calm   6.4 km/h 81% 0.0 mm 0.00 W/m2 BKN
00:15 11.2 °C 8.1 °C 1019.2 hPa SW 1.6 km/h 4.8 km/h 81% 0.0 mm 0.00 W/m2 BKN
00:20 11.3 °C 8.1 °C 1019.1 hPa SW 3.2 km/h 8.0 km/h 81% 0.0 mm 0.00 W/m2 BKN
00:25 11.2 °C 8.0 °C 1019.1 hPa SW 3.2 km/h 8.0 km/h 81% 0.0 mm 0.00 W/m2 BKN
00:30 11.2 °C 8.0 °C 1019.0 hPa SW 3.2 km/h 9.7 km/h 81% 0.0 mm 0.00 W/m2 BKN
00:35 11.2 °C 8.1 °C 1019.0 hPa SW 1.6 km/h 12.9 km/h 81% 0.0 mm 0.00 W/m2 BKN
00:40 11.3 °C 8.2 °C 1018.9 hPa SW 4.8 km/h 9.7 km/h 81% 0.0 mm 0.00 W/m2 BKN
00:45 11.3 °C 8.2 °C 1018.8 hPa SW 4.8 km/h 9.7 km/h 81% 0.0 mm 0.00 W/m2 BKN
00:50 11.4 °C 8.3 °C 1018.8 hPa SSW 1.6 km/h 8.0 km/h 81% 0.0 mm 0.00 W/m2 BKN
00:55 11.4 °C 8.1 °C 1018.7 hPa SW 3.2 km/h 9.7 km/h 80% 0.0 mm 0.00 W/m2 BKN
01:00 11.4 °C 8.2 °C 1018.7 hPa SW 1.6 km/h 6.4 km/h 81% 0.0 mm 0.00 W/m2 BKN
01:05 11.4 °C 8.1 °C 1018.6 hPa Calm   4.8 km/h 80% 0.0 mm 0.00 W/m2 BKN
01:10 11.4 °C 8.1 °C 1018.6 hPa Calm   4.8 km/h 80% 0.0 mm 0.00 W/m2 BKN
01:15 11.3 °C 8.0 °C 1018.5 hPa Calm   9.7 km/h 80% 0.0 mm 0.00 W/m2 BKN
01:20 11.2 °C 7.9 °C 1018.5 hPa Calm   1.6 km/h 80% 0.0 mm 0.00 W/m2 BKN
01:25 11.2 °C 7.8 °C 1018.4 hPa South 1.6 km/h 3.2 km/h 80% 0.0 mm 0.00 W/m2 BKN
01:30 11.1 °C 7.9 °C 1018.4 hPa SSE 1.6 km/h 3.2 km/h 81% 0.0 mm 0.00 W/m2 BKN
01:35 10.9 °C 7.8 °C 1018.4 hPa SSE 1.6 km/h 6.4 km/h 81% 0.0 mm 0.00 W/m2 BKN
01:40 10.8 °C 7.7 °C 1018.4 hPa SE 1.6 km/h 4.8 km/h 81% 0.0 mm 0.00 W/m2 BKN
01:45 10.6 °C 7.5 °C 1018.4 hPa Calm   3.2 km/h 81% 0.0 mm 0.00 W/m2 BKN
01:50 10.6 °C 7.4 °C 1018.3 hPa SE 1.6 km/h 3.2 km/h 81% 0.0 mm 0.00 W/m2 BKN
01:55 10.4 °C 7.3 °C 1018.3 hPa SE 1.6 km/h 3.2 km/h 81% 0.0 mm 0.00 W/m2 BKN
02:00 10.4 °C 7.4 °C 1018.3 hPa SE 1.6 km/h 3.2 km/h 82% 0.0 mm 0.00 W/m2 BKN
02:05 10.3 °C 7.2 °C 1018.3 hPa Calm   3.2 km/h 81% 0.0 mm 0.00 W/m2 BKN
02:10 10.3 °C 7.3 °C 1018.3 hPa Calm   1.6 km/h 82% 0.0 mm 0.00 W/m2 BKN
02:15 10.2 °C 7.3 °C 1018.2 hPa Calm   1.6 km/h 82% 0.0 mm 0.00 W/m2 BKN
02:20 10.2 °C 7.2 °C 1018.2 hPa Calm   4.8 km/h 82% 0.0 mm 0.00 W/m2 SCT
02:25 10.1 °C 7.3 °C 1018.3 hPa NNE 1.6 km/h 3.2 km/h 83% 0.0 mm 0.00 W/m2 SCT
02:30 10.1 °C 7.3 °C 1018.3 hPa Calm     83% 0.0 mm 0.00 W/m2 SCT
02:35 10.0 °C 7.3 °C 1018.2 hPa Calm   1.6 km/h 83% 0.0 mm 0.00 W/m2 SCT
02:40 9.9 °C 7.2 °C 1018.3 hPa North 1.6 km/h 4.8 km/h 83% 0.0 mm 0.00 W/m2 SCT
02:45 9.9 °C 7.2 °C 1018.3 hPa NNE 3.2 km/h 4.8 km/h 83% 0.0 mm 0.00 W/m2 SCT
02:50 9.9 °C 7.2 °C 1018.3 hPa Calm   4.8 km/h 83% 0.0 mm 0.00 W/m2 FEW
02:55 9.9 °C 7.1 °C 1018.2 hPa NE 1.6 km/h 3.2 km/h 83% 0.0 mm 0.00 W/m2 FEW
03:00 9.8 °C 7.1 °C 1018.3 hPa East 1.6 km/h 3.2 km/h 83% 0.0 mm 0.00 W/m2 FEW
03:05 9.8 °C 7.3 °C 1018.3 hPa Calm   1.6 km/h 84% 0.0 mm 0.00 W/m2 FEW
03:10 9.8 °C 7.2 °C 1018.3 hPa SW 1.6 km/h 3.2 km/h 84% 0.0 mm 0.00 W/m2 FEW
03:15 9.7 °C 7.2 °C 1018.3 hPa West 1.6 km/h 3.2 km/h 84% 0.0 mm 0.00 W/m2 FEW
03:20 9.7 °C 7.1 °C 1018.3 hPa Calm   1.6 km/h 84% 0.0 mm 0.00 W/m2 FEW
03:25 9.8 °C 7.2 °C 1018.3 hPa West 1.6 km/h 3.2 km/h 84% 0.0 mm 0.00 W/m2 FEW
03:30 9.8 °C 7.4 °C 1018.3 hPa Calm   3.2 km/h 85% 0.0 mm 0.00 W/m2 FEW
03:35 9.8 °C 7.4 °C 1018.3 hPa SW 1.6 km/h 6.4 km/h 85% 0.0 mm 0.00 W/m2 FEW
03:40 9.9 °C 7.5 °C 1018.3 hPa SW 1.6 km/h 4.8 km/h 85% 0.0 mm 0.00 W/m2 FEW
03:45 9.9 °C 7.6 °C 1018.2 hPa Calm   3.2 km/h 85% 0.0 mm 0.00 W/m2 FEW
03:50 9.9 °C 7.6 °C 1018.3 hPa Calm   1.6 km/h 85% 0.0 mm 0.00 W/m2 FEW
03:55 10.0 °C 7.6 °C 1018.3 hPa Calm   8.0 km/h 85% 0.0 mm 0.00 W/m2 FEW
04:00 10.0 °C 7.6 °C 1018.2 hPa Calm   1.6 km/h 85% 0.0 mm 0.00 W/m2 FEW
04:05 10.0 °C 7.6 °C 1018.2 hPa SSE 1.6 km/h 6.4 km/h 85% 0.0 mm 0.00 W/m2 FEW
04:10 10.1 °C 7.5 °C 1018.2 hPa Calm   3.2 km/h 84% 0.0 mm 0.00 W/m2 FEW
04:15 10.0 °C 7.4 °C 1018.2 hPa Calm   4.8 km/h 84% 0.0 mm 0.00 W/m2 FEW
04:20 10.0 °C 7.4 °C 1018.1 hPa Calm   6.4 km/h 84% 0.0 mm 0.00 W/m2 FEW
04:25 10.1 °C 7.4 °C 1018.1 hPa Calm   4.8 km/h 84% 0.0 mm 0.00 W/m2 FEW
04:30 10.2 °C 7.7 °C 1018.0 hPa SW 1.6 km/h 6.4 km/h 85% 0.0 mm 0.00 W/m2 FEW
04:50 10.2 °C 7.6 °C 1017.9 hPa Calm   3.2 km/h 84% 0.0 mm 0.00 W/m2 FEW
04:55 10.2 °C 7.6 °C 1017.8 hPa Calm   1.6 km/h 84% 0.0 mm 0.00 W/m2 FEW
05:00 10.1 °C 7.5 °C 1017.8 hPa Calm   1.6 km/h 84% 0.0 mm 0.00 W/m2 FEW
05:05 10.1 °C 7.5 °C 1017.7 hPa Calm     84% 0.0 mm 0.00 W/m2 FEW
05:10 10.0 °C 7.4 °C 1017.7 hPa South 1.6 km/h 4.8 km/h 84% 0.0 mm 0.00 W/m2 FEW
05:15 10.0 °C 7.4 °C 1017.7 hPa South 1.6 km/h 8.0 km/h 84% 0.0 mm 0.00 W/m2 FEW
05:20 10.1 °C 7.6 °C 1017.6 hPa Calm   11.3 km/h 84% 0.0 mm 0.00 W/m2 FEW
05:25 10.2 °C 7.7 °C 1017.6 hPa SSW 3.2 km/h 8.0 km/h 84% 0.0 mm 0.00 W/m2 FEW
05:30 10.3 °C 7.7 °C 1017.6 hPa Calm   3.2 km/h 84% 0.0 mm 0.00 W/m2 FEW
05:35 10.2 °C 7.4 °C 1017.5 hPa Calm   3.2 km/h 83% 0.0 mm 0.00 W/m2 FEW
05:40 10.2 °C 7.4 °C 1017.5 hPa SSW 1.6 km/h 4.8 km/h 83% 0.0 mm 0.00 W/m2 FEW
05:45 10.1 °C 7.3 °C 1017.4 hPa SW 1.6 km/h 4.8 km/h 83% 0.0 mm 0.00 W/m2 FEW
05:50 10.2 °C 7.6 °C 1017.4 hPa Calm   3.2 km/h 84% 0.0 mm 0.00 W/m2 FEW
05:55 10.2 °C 7.4 °C 1017.4 hPa SW 3.2 km/h 6.4 km/h 83% 0.0 mm 0.00 W/m2 FEW
06:00 10.2 °C 7.4 °C 1017.3 hPa SW 1.6 km/h 6.4 km/h 83% 0.0 mm 0.00 W/m2 FEW
06:05 10.2 °C 7.4 °C 1017.3 hPa Calm   3.2 km/h 83% 0.0 mm 0.00 W/m2 FEW
06:10 10.2 °C 7.4 °C 1017.3 hPa SSW 3.2 km/h 9.7 km/h 83% 0.0 mm 0.00 W/m2 FEW
06:15 10.2 °C 7.4 °C 1017.3 hPa SSW 3.2 km/h 12.9 km/h 83% 0.0 mm 0.00 W/m2 FEW
06:20 10.2 °C 7.4 °C 1017.3 hPa SSW 1.6 km/h 6.4 km/h 83% 0.0 mm 0.00 W/m2 CLR
06:25 10.1 °C 7.4 °C 1017.4 hPa Calm   6.4 km/h 83% 0.0 mm 0.00 W/m2 CLR
06:30 10.1 °C 7.3 °C 1017.4 hPa SW 1.6 km/h 9.7 km/h 83% 0.0 mm 0.00 W/m2 CLR
06:35 10.1 °C 7.3 °C 1017.4 hPa SSW 1.6 km/h 6.4 km/h 83% 0.0 mm 0.00 W/m2 CLR
06:40 10.1 °C 7.3 °C 1017.4 hPa SSW 1.6 km/h 12.9 km/h 83% 0.0 mm 0.00 W/m2 CLR
06:45 10.1 °C 7.3 °C 1017.4 hPa SSW 3.2 km/h 8.0 km/h 83% 0.0 mm 0.00 W/m2 CLR
06:50 10.1 °C 7.3 °C 1017.4 hPa SW 4.8 km/h 8.0 km/h 83% 0.0 mm 0.00 W/m2 FEW
06:55 10.1 °C 7.3 °C 1017.4 hPa SW 3.2 km/h 9.7 km/h 83% 0.0 mm 0.00 W/m2 FEW
07:00 10.2 °C 7.4 °C 1017.4 hPa SSW 1.6 km/h 14.5 km/h 83% 0.0 mm 0.00 W/m2 FEW
07:05 10.2 °C 7.4 °C 1017.5 hPa SSW 1.6 km/h 3.2 km/h 83% 0.0 mm 0.00 W/m2 FEW
07:10 10.2 °C 7.4 °C 1017.4 hPa Calm   6.4 km/h 83% 0.0 mm 0.00 W/m2 FEW
07:15 10.2 °C 7.4 °C 1017.5 hPa Calm   8.0 km/h 83% 0.0 mm 0.00 W/m2 FEW
07:20 10.2 °C 7.4 °C 1017.5 hPa Calm   4.8 km/h 83% 0.0 mm 0.00 W/m2 FEW
07:25 10.2 °C 7.4 °C 1017.5 hPa SSW 1.6 km/h 6.4 km/h 83% 0.0 mm 0.00 W/m2 FEW
07:30 10.2 °C 7.4 °C 1017.5 hPa SW 1.6 km/h 8.0 km/h 83% 0.0 mm 0.00 W/m2 FEW
07:35 10.3 °C 7.5 °C 1017.5 hPa SW 3.2 km/h 8.0 km/h 83% 0.0 mm 0.00 W/m2 FEW
07:40 10.3 °C 7.6 °C 1017.6 hPa SSW 3.2 km/h 11.3 km/h 83% 0.0 mm 0.00 W/m2 FEW
07:45 10.4 °C 7.5 °C 1017.5 hPa SW 1.6 km/h 14.5 km/h 82% 0.0 mm 0.00 W/m2 FEW
07:50 10.6 °C 7.7 °C 1017.4 hPa SW 4.8 km/h 16.1 km/h 82% 0.0 mm 0.00 W/m2 CLR
07:55 10.7 °C 7.6 °C 1017.5 hPa SSW 1.6 km/h 12.9 km/h 81% 0.0 mm 0.00 W/m2 CLR
08:00 10.7 °C 7.6 °C 1017.4 hPa SW 4.8 km/h 12.9 km/h 81% 0.0 mm 0.00 W/m2 OVC
08:05 10.9 °C 7.8 °C 1017.4 hPa SW 4.8 km/h 19.3 km/h 81% 0.0 mm 0.00 W/m2 OVC
08:10 11.1 °C 7.8 °C 1017.3 hPa SW 4.8 km/h 20.9 km/h 80% 0.0 mm 0.00 W/m2 OVC
08:15 11.2 °C 7.7 °C 1017.3 hPa SW 4.8 km/h 12.9 km/h 79% 0.0 mm 6.00 W/m2 OVC
08:20 11.2 °C 7.7 °C 1017.3 hPa SSW 4.8 km/h 11.3 km/h 79% 0.0 mm 8.40 W/m2 FEW
08:25 11.2 °C 7.7 °C 1017.3 hPa SW 3.2 km/h 9.7 km/h 79% 0.0 mm 10.80 W/m2 FEW
08:30 11.2 °C 7.4 °C 1017.3 hPa SW 3.2 km/h 14.5 km/h 78% 0.0 mm 14.40 W/m2 FEW
08:35 11.1 °C 7.4 °C 1017.3 hPa SW 4.8 km/h 12.9 km/h 78% 0.0 mm 16.80 W/m2 FEW
08:40 11.2 °C 7.4 °C 1017.3 hPa SW 4.8 km/h 14.5 km/h 78% 0.0 mm 21.60 W/m2 FEW
08:45 11.2 °C 7.5 °C 1017.3 hPa SW 8.0 km/h 14.5 km/h 78% 0.0 mm 30.00 W/m2 FEW
08:50 11.3 °C 7.6 °C 1017.3 hPa SW 8.0 km/h 19.3 km/h 78% 0.0 mm 36.00 W/m2 FEW
08:55 11.4 °C 7.6 °C 1017.3 hPa SW 8.0 km/h 22.5 km/h 77% 0.0 mm 50.40 W/m2 FEW
09:00 11.6 °C 7.7 °C 1017.3 hPa SW 8.0 km/h 20.9 km/h 77% 0.0 mm 67.20 W/m2 FEW
09:05 11.7 °C 7.8 °C 1017.4 hPa SW 8.0 km/h 19.3 km/h 77% 0.0 mm 86.40 W/m2 FEW
09:10 11.8 °C 7.7 °C 1017.3 hPa SW 9.7 km/h 22.5 km/h 76% 0.0 mm 103.20 W/m2 FEW
09:15 11.9 °C 7.8 °C 1017.4 hPa SW 8.0 km/h 24.1 km/h 76% 0.0 mm 122.40 W/m2 FEW
09:20 12.0 °C 7.7 °C 1017.3 hPa SW 9.7 km/h 19.3 km/h 75% 0.0 mm 141.60 W/m2 FEW
09:25 12.1 °C 7.8 °C 1017.4 hPa SW 8.0 km/h 22.5 km/h 75% 0.0 mm 162.00 W/m2 FEW
09:30 12.2 °C 7.8 °C 1017.4 hPa SW 8.0 km/h 22.5 km/h 75% 0.0 mm 181.20 W/m2 FEW
09:35 12.3 °C 7.8 °C 1017.5 hPa SW 11.3 km/h 22.5 km/h 74% 0.0 mm 202.80 W/m2 FEW
09:40 12.3 °C 7.8 °C 1017.5 hPa SW 11.3 km/h 19.3 km/h 74% 0.0 mm 223.20 W/m2 FEW
09:45 12.4 °C 7.9 °C 1017.6 hPa SW 9.7 km/h 20.9 km/h 74% 0.0 mm 240.00 W/m2 FEW
09:50 12.5 °C 8.0 °C 1017.6 hPa SW 11.3 km/h 20.9 km/h 74% 0.0 mm 261.60 W/m2 FEW
09:55 12.6 °C 7.8 °C 1017.6 hPa SW 11.3 km/h 20.9 km/h 73% 0.0 mm 270.00 W/m2 FEW
10:00 12.6 °C 7.9 °C 1017.6 hPa SW 8.0 km/h 16.1 km/h 73% 0.0 mm 301.20 W/m2 FEW
10:05 12.7 °C 8.0 °C 1017.5 hPa SW 14.5 km/h 22.5 km/h 73% 0.0 mm 326.40 W/m2 FEW
10:10 12.8 °C 8.1 °C 1017.6 hPa SW 9.7 km/h 20.9 km/h 73% 0.0 mm 348.00 W/m2 FEW
10:15 13.0 °C 8.1 °C 1017.6 hPa SW 4.8 km/h 14.5 km/h 72% 0.0 mm 362.40 W/m2 FEW
10:20 13.1 °C 8.2 °C 1017.6 hPa SW 9.7 km/h 16.1 km/h 72% 0.0 mm 373.20 W/m2 SCT
10:25 13.2 °C 8.3 °C 1017.6 hPa SW 9.7 km/h 24.1 km/h 72% 0.0 mm 394.80 W/m2 SCT
10:30 13.3 °C 8.2 °C 1017.5 hPa SW 9.7 km/h 19.3 km/h 71% 0.0 mm 406.80 W/m2 SCT
10:35 13.3 °C 8.2 °C 1017.6 hPa SW 9.7 km/h 22.5 km/h 71% 0.0 mm 423.60 W/m2 SCT
10:40 13.4 °C 8.1 °C 1017.6 hPa SW 9.7 km/h 22.5 km/h 70% 0.0 mm 440.40 W/m2 SCT
10:45 13.5 °C 8.1 °C 1017.7 hPa SW 11.3 km/h 22.5 km/h 70% 0.0 mm 456.00 W/m2 SCT
10:50 13.6 °C 8.0 °C 1017.7 hPa SSW 11.3 km/h 24.1 km/h 69% 0.0 mm 465.60 W/m2 FEW
10:55 13.6 °C 8.0 °C 1017.6 hPa SSW 9.7 km/h 24.1 km/h 69% 0.0 mm 481.20 W/m2 FEW
11:00 13.7 °C 8.1 °C 1017.6 hPa SW 11.3 km/h 20.9 km/h 69% 0.0 mm 493.20 W/m2 FEW
11:05 13.7 °C 7.9 °C 1017.6 hPa SW 14.5 km/h 24.1 km/h 68% 0.0 mm 508.80 W/m2 FEW
11:10 13.8 °C 7.9 °C 1017.6 hPa SW 9.7 km/h 25.7 km/h 68% 0.0 mm 518.40 W/m2 FEW
11:15 13.8 °C 8.0 °C 1017.6 hPa SW 14.5 km/h 24.1 km/h 68% 0.0 mm 531.60 W/m2 FEW
11:20 13.9 °C 8.1 °C 1017.6 hPa SW 12.9 km/h 24.1 km/h 68% 0.0 mm 544.80 W/m2 FEW
11:25 14.0 °C 8.2 °C 1017.6 hPa SSW 9.7 km/h 20.9 km/h 68% 0.0 mm 550.80 W/m2 FEW
11:30 14.1 °C 8.1 °C 1017.6 hPa SSW 8.0 km/h 16.1 km/h 67% 0.0 mm 561.60 W/m2 FEW
11:35 14.2 °C 8.1 °C 1017.6 hPa SSW 9.7 km/h 22.5 km/h 67% 0.0 mm 571.20 W/m2 FEW
11:40 14.2 °C 8.1 °C 1017.5 hPa SSW 9.7 km/h 16.1 km/h 67% 0.0 mm 579.60 W/m2 FEW
11:45 14.2 °C 8.3 °C 1017.5 hPa SW 8.0 km/h 22.5 km/h 68% 0.0 mm 590.40 W/m2 FEW
11:50 14.2 °C 8.2 °C 1017.5 hPa SW 8.0 km/h 19.3 km/h 67% 0.0 mm 598.80 W/m2 FEW
11:55 14.4 °C 8.6 °C 1017.4 hPa SSW 8.0 km/h 16.1 km/h 68% 0.0 mm 603.60 W/m2 FEW
12:00 14.6 °C 8.5 °C 1017.4 hPa SSW 8.0 km/h 19.3 km/h 67% 0.0 mm 603.60 W/m2 FEW
12:05 14.5 °C 8.4 °C 1017.3 hPa SSW 9.7 km/h 19.3 km/h 67% 0.0 mm 622.80 W/m2 FEW
12:10 14.6 °C 8.3 °C 1017.2 hPa SW 16.1 km/h 24.1 km/h 66% 0.0 mm 618.00 W/m2 FEW
12:15 14.6 °C 8.3 °C 1017.1 hPa SW 8.0 km/h 20.9 km/h 66% 0.0 mm 631.20 W/m2 FEW
12:20 14.7 °C 8.4 °C 1017.0 hPa SSW 9.7 km/h 19.3 km/h 66% 0.0 mm 640.80 W/m2 FEW
12:25 14.7 °C 8.2 °C 1016.8 hPa SSW 8.0 km/h 19.3 km/h 65% 0.0 mm 648.00 W/m2 FEW
12:30 14.7 °C 8.2 °C 1016.8 hPa SSW 9.7 km/h 22.5 km/h 65% 0.0 mm 639.60 W/m2 FEW
12:35 14.8 °C 8.3 °C 1016.6 hPa SSW 11.3 km/h 20.9 km/h 65% 0.0 mm 651.60 W/m2 FEW
12:40 14.8 °C 8.3 °C 1016.6 hPa SW 8.0 km/h 20.9 km/h 65% 0.0 mm 648.00 W/m2 FEW
12:45 14.9 °C 8.4 °C 1016.5 hPa SW 8.0 km/h 24.1 km/h 65% 0.0 mm 662.40 W/m2 FEW
12:50 14.9 °C 8.4 °C 1016.4 hPa SW 9.7 km/h 20.9 km/h 65% 0.0 mm 654.00 W/m2 CLR
12:55 15.0 °C 8.4 °C 1016.4 hPa SW 8.0 km/h 16.1 km/h 65% 0.0 mm 662.40 W/m2 CLR
13:00 15.1 °C 8.3 °C 1016.2 hPa SSW 11.3 km/h 19.3 km/h 64% 0.0 mm 670.80 W/m2 CLR
13:05 15.1 °C 8.3 °C 1016.2 hPa SW 9.7 km/h 19.3 km/h 64% 0.0 mm 662.40 W/m2 CLR
13:10 14.9 °C 8.4 °C 1016.1 hPa SSW 9.7 km/h 16.1 km/h 65% 0.0 mm 662.40 W/m2 CLR
13:15 15.1 °C 8.5 °C 1016.0 hPa SW 9.7 km/h 16.1 km/h 65% 0.0 mm 673.20 W/m2 CLR
13:20 15.1 °C 8.3 °C 1016.0 hPa SW 8.0 km/h 19.3 km/h 64% 0.0 mm 660.00 W/m2 CLR
13:25 15.2 °C 8.4 °C 1015.9 hPa SW 12.9 km/h 29.0 km/h 64% 0.0 mm 670.80 W/m2 CLR
13:30 15.1 °C 8.3 °C 1015.8 hPa SSW 11.3 km/h 20.9 km/h 64% 0.0 mm 668.40 W/m2 CLR
13:35 15.1 °C 8.3 °C 1015.8 hPa SW 9.7 km/h 22.5 km/h 64% 0.0 mm 662.40 W/m2 CLR
13:40 15.2 °C 8.4 °C 1015.6 hPa SW 9.7 km/h 22.5 km/h 64% 0.0 mm 660.00 W/m2 CLR
13:45 15.1 °C 8.4 °C 1015.6 hPa SSW 9.7 km/h 22.5 km/h 64% 0.0 mm 651.60 W/m2 CLR
13:50 15.1 °C 8.3 °C 1015.5 hPa SSW 9.7 km/h 19.3 km/h 64% 0.0 mm 656.40 W/m2 FEW
13:55 15.1 °C 8.6 °C 1015.4 hPa SSW 8.0 km/h 20.9 km/h 65% 0.0 mm 654.00 W/m2 FEW
14:00 15.3 °C 8.7 °C 1015.3 hPa SW 9.7 km/h 20.9 km/h 65% 0.0 mm 648.00 W/m2 FEW
14:05 15.3 °C 8.8 °C 1015.2 hPa SSW 9.7 km/h 19.3 km/h 65% 0.0 mm 643.20 W/m2 FEW
14:10 15.3 °C 8.6 °C 1015.2 hPa SSW 9.7 km/h 20.9 km/h 64% 0.0 mm 639.60 W/m2 FEW
14:15 15.2 °C 8.6 °C 1015.2 hPa SW 8.0 km/h 22.5 km/h 65% 0.0 mm 626.40 W/m2 FEW
14:20 15.2 °C 8.7 °C 1015.1 hPa SSW 11.3 km/h 22.5 km/h 65% 0.0 mm 622.80 W/m2 FEW
14:25 15.2 °C 8.7 °C 1015.1 hPa SSW 11.3 km/h 16.1 km/h 65% 0.0 mm 618.00 W/m2 FEW
14:30 15.2 °C 8.7 °C 1015.1 hPa SSW 9.7 km/h 16.1 km/h 65% 0.0 mm 607.20 W/m2 FEW
14:35 15.3 °C 8.7 °C 1015.0 hPa SW 11.3 km/h 22.5 km/h 65% 0.0 mm 598.80 W/m2 FEW
14:40 15.1 °C 8.3 °C 1014.9 hPa SW 9.7 km/h 20.9 km/h 64% 0.0 mm 592.80 W/m2 FEW
14:45 15.1 °C 8.6 °C 1014.9 hPa SSW 8.0 km/h 22.5 km/h 65% 0.0 mm 584.40 W/m2 FEW
14:50 15.3 °C 8.7 °C 1014.9 hPa SSW 8.0 km/h 19.3 km/h 65% 0.0 mm 576.00 W/m2 FEW
14:55 15.2 °C 8.7 °C 1014.9 hPa SSW 9.7 km/h 20.9 km/h 65% 0.0 mm 567.60 W/m2 FEW
15:00 15.2 °C 8.7 °C 1014.9 hPa SSW 9.7 km/h 22.5 km/h 65% 0.0 mm 553.20 W/m2 FEW
15:05 15.3 °C 8.8 °C 1014.8 hPa SSW 8.0 km/h 20.9 km/h 65% 0.0 mm 544.80 W/m2 FEW
15:10 15.2 °C 8.7 °C 1014.8 hPa SW 9.7 km/h 19.3 km/h 65% 0.0 mm 531.60 W/m2 FEW
15:15 15.1 °C 8.8 °C 1014.8 hPa SSW 9.7 km/h 22.5 km/h 66% 0.0 mm 518.40 W/m2 FEW
15:20 15.2 °C 8.8 °C 1014.8 hPa SSW 8.0 km/h 19.3 km/h 66% 0.0 mm 506.40 W/m2 FEW
15:25 15.2 °C 8.8 °C 1014.7 hPa SSW 8.0 km/h 25.7 km/h 66% 0.0 mm 495.60 W/m2 FEW
15:30 15.0 °C 8.7 °C 1014.6 hPa SSW 9.7 km/h 19.3 km/h 66% 0.0 mm 483.60 W/m2 FEW
15:35 15.1 °C 8.9 °C 1014.6 hPa SSW 9.7 km/h 19.3 km/h 67% 0.0 mm 470.40 W/m2 FEW
15:40 15.0 °C 8.9 °C 1014.4 hPa SSW 8.0 km/h 19.3 km/h 67% 0.0 mm 453.60 W/m2 FEW
15:45 14.9 °C 8.8 °C 1014.4 hPa SSW 9.7 km/h 19.3 km/h 67% 0.0 mm 436.80 W/m2 FEW
15:50 14.9 °C 9.1 °C 1014.4 hPa SSW 8.0 km/h 16.1 km/h 68% 0.0 mm 426.00 W/m2 CLR
15:55 14.9 °C 9.1 °C 1014.4 hPa SSW 8.0 km/h 27.4 km/h 68% 0.0 mm 406.80 W/m2 CLR
16:00 14.8 °C 9.2 °C 1014.4 hPa SSW 11.3 km/h 19.3 km/h 69% 0.0 mm 396.00 W/m2 CLR
16:05 14.8 °C 9.2 °C 1014.4 hPa SSW 11.3 km/h 22.5 km/h 69% 0.0 mm 375.60 W/m2 CLR
16:10 14.8 °C 9.4 °C 1014.5 hPa South 8.0 km/h 19.3 km/h 70% 0.0 mm 361.20 W/m2 CLR
16:15 14.8 °C 9.3 °C 1014.4 hPa SSW 9.7 km/h 22.5 km/h 70% 0.0 mm 342.00 W/m2 CLR
16:20 14.7 °C 9.5 °C 1014.5 hPa SSW 4.8 km/h 19.3 km/h 71% 0.0 mm 322.80 W/m2 CLR
16:25 14.7 °C 9.4 °C 1014.4 hPa SSW 9.7 km/h 20.9 km/h 71% 0.0 mm 301.20 W/m2 CLR
16:30 14.6 °C 9.3 °C 1014.4 hPa SSW 9.7 km/h 20.9 km/h 71% 0.0 mm 278.40 W/m2 CLR
16:35 14.4 °C 9.4 °C 1014.3 hPa SSW 9.7 km/h 24.1 km/h 72% 0.0 mm 261.60 W/m2 CLR
16:40 14.4 °C 9.4 °C 1014.3 hPa SSW 8.0 km/h 19.3 km/h 72% 0.0 mm 236.40 W/m2 CLR
16:45 14.3 °C 9.5 °C 1014.2 hPa SSW 8.0 km/h 19.3 km/h 73% 0.0 mm 211.20 W/m2 CLR
16:50 14.2 °C 9.4 °C 1014.3 hPa SSW 8.0 km/h 20.9 km/h 73% 0.0 mm 189.60 W/m2 CLR
16:55 14.1 °C 9.3 °C 1014.3 hPa SW 9.7 km/h 20.9 km/h 73% 0.0 mm 156.00 W/m2 CLR
17:00 14.0 °C 9.4 °C 1014.3 hPa SSW 8.0 km/h 19.3 km/h 74% 0.0 mm 133.20 W/m2 CLR
17:05 13.9 °C 9.3 °C 1014.3 hPa SSW 4.8 km/h 16.1 km/h 74% 0.0 mm 116.40 W/m2 CLR
17:10 13.8 °C 9.5 °C 1014.3 hPa SSW 8.0 km/h 19.3 km/h 75% 0.0 mm 91.20 W/m2 CLR
17:15 13.6 °C 9.3 °C 1014.3 hPa SSW 4.8 km/h 19.3 km/h 75% 0.0 mm 36.00 W/m2 SCT
17:20 13.3 °C 9.2 °C 1014.3 hPa SSW 4.8 km/h 16.1 km/h 76% 0.0 mm 31.20 W/m2 SCT
17:25 13.2 °C 9.0 °C 1014.3 hPa SSW 8.0 km/h 16.1 km/h 76% 0.0 mm 27.60 W/m2 SCT
17:30 13.0 °C 9.1 °C 1014.3 hPa SSW 8.0 km/h 19.3 km/h 77% 0.0 mm 25.20 W/m2 SCT
17:35 12.9 °C 9.1 °C 1014.3 hPa SSW 4.8 km/h 14.5 km/h 78% 0.0 mm 21.60 W/m2 FEW
17:40 12.8 °C 9.1 °C 1014.2 hPa SSW 4.8 km/h 14.5 km/h 78% 0.0 mm 19.20 W/m2 CLR
17:45 12.7 °C 9.2 °C 1014.3 hPa SSW 4.8 km/h 19.3 km/h 79% 0.0 mm 16.80 W/m2 CLR
17:50 12.7 °C 9.1 °C 1014.2 hPa SSW 4.8 km/h 14.5 km/h 79% 0.0 mm 13.20 W/m2 CLR
17:55 12.6 °C 9.2 °C 1014.2 hPa SSW 3.2 km/h 12.9 km/h 80% 0.0 mm 10.80 W/m2 OVC
18:00 12.5 °C 9.2 °C 1014.2 hPa SSW 4.8 km/h 14.5 km/h 80% 0.0 mm 8.40 W/m2 OVC
18:05 12.4 °C 9.1 °C 1014.2 hPa SW 4.8 km/h 12.9 km/h 80% 0.0 mm 0.00 W/m2 OVC
18:10 12.3 °C 9.0 °C 1014.2 hPa SW 4.8 km/h 14.5 km/h 80% 0.0 mm 0.00 W/m2 OVC
18:15 12.3 °C 8.9 °C 1014.2 hPa SSW 3.2 km/h 12.9 km/h 80% 0.0 mm 0.00 W/m2 OVC
18:20 12.3 °C 9.1 °C 1014.2 hPa SSW 3.2 km/h 9.7 km/h 81% 0.0 mm 0.00 W/m2 OVC
18:25 12.2 °C 9.1 °C 1014.2 hPa SSW 4.8 km/h 9.7 km/h 81% 0.0 mm 0.00 W/m2 OVC
18:30 12.2 °C 9.0 °C 1014.2 hPa SW 3.2 km/h 14.5 km/h 81% 0.0 mm 0.00 W/m2 OVC
18:35 12.1 °C 8.9 °C 1014.3 hPa SW 3.2 km/h 9.7 km/h 81% 0.0 mm 0.00 W/m2 CLR
18:40 12.1 °C 9.1 °C 1014.4 hPa SSW 3.2 km/h 12.9 km/h 82% 0.0 mm 0.00 W/m2 CLR
18:45 12.1 °C 9.1 °C 1014.3 hPa SW 3.2 km/h 11.3 km/h 82% 0.0 mm 0.00 W/m2 CLR
18:50 12.0 °C 9.0 °C 1014.3 hPa SW 3.2 km/h 9.7 km/h 82% 0.0 mm 0.00 W/m2 CLR
Juneau County Weather
Compliments of Weather Underground - 13 mb

temps passé